Portada
METAR-TAF:

METAR-TAF

Aeroports :

Buriram, Tailàndia

latitud: 15-13-46N, longitud: 103-15-04E, altitud: 180 m

Observació

L'informe es va fer fa 1 hora i 8 minuts, a les 22:00 UTC
Vent 1 kt amb direcció variable
Temperatura 18°C
Humitat 100%
Pressió 1014 hPa
Visibilitat: 5000 m
boirina

METAR: VTUO 222200Z VRB01KT 5000 BR NSC 18/18 Q1014 NOSIG

Hora: 06:08 (23:08 UTC)

Pronòstic

L'informe es va fer fa 6 hores i 8 minuts, a les 17:00 UTC
Pronòstic vàlid del 22 a les 18 UTC al 23 a les 18 UTC
Vent 6 kt del Nord-Est
Visibilitat: 8000 m
Escasses núvols a una alçada de 3000 ft
Evolucionant progressivament
l' 22 a les 21 UTC al 22 a les 23 UTC
Visibilitat: 5000 m
boirina
Evolucionant progressivament
l' 23 a les 01 UTC al 23 a les 03 UTC
Visibilitat 10 km o més

TAF: VTUO 221700Z 2218/2318 05006KT 8000 FEW030 BECMG 2221/2223 5000 BR BECMG 2301/2303 9999 NSW

Observacions i pronòstics meteorològics de més de 4000 aeroports (METAR i TAF).

Les estacions disponibles són els punts grocs i vermells al mapa.

Posi el ratolí al punt desitjat per veure el nom de l'estació.

Feu clic per veure les observacions i els pronòstics meteorològics.

Per canviar el mapa: feu clic els botons verds amb una creu de color negre per apropar; al botó verd amb un guió per allunyar la imatge; o en les fletxes verdes per a mapes adjacents.


METAR-TAF: